Time;durP1;ratioP1;P1;durP2;ratioP2;P2;SDS_P1;SDS_P2;PMS_P1;PMS_P2;Temp;Humidity;BMP_temperature;BMP_pressure;BME280_temperature;BME280_humidity;BME280_pressure;Samples;Min_cycle;Max_cycle;Signal;HPM_P1;HPM_P2
2023/07/29 00:01:32;;;;;;;9.77;4.35;;;18.00;99.90;;;;;;5016988;28;20228;-86
2023/07/29 00:03:57;;;;;;;9.35;4.80;;;17.90;99.90;;;;;;5034544;28;20166;-86
2023/07/29 00:06:24;;;;;;;6.07;4.03;;;17.90;99.90;;;;;;5016614;28;20262;-86
2023/07/29 00:08:49;;;;;;;11.25;4.63;;;18.00;99.90;;;;;;5016977;28;20574;-86
2023/07/29 00:11:15;;;;;;;7.22;3.88;;;17.90;99.90;;;;;;5030138;28;20182;-86
2023/07/29 00:13:41;;;;;;;7.15;4.00;;;17.90;99.90;;;;;;5036067;28;20189;-85
2023/07/29 00:16:06;;;;;;;7.72;3.97;;;17.80;99.90;;;;;;5036563;28;20205;-86
2023/07/29 00:18:32;;;;;;;9.20;4.47;;;17.80;99.90;;;;;;5036486;28;20182;-86
2023/07/29 00:20:58;;;;;;;8.18;3.88;;;17.80;99.90;;;;;;5054222;28;20558;-85
2023/07/29 00:23:24;;;;;;;5.95;3.78;;;17.80;99.90;;;;;;5036304;28;20264;-85
2023/07/29 00:25:49;;;;;;;6.55;4.00;;;17.90;99.90;;;;;;5035591;28;20186;-85
2023/07/29 00:28:15;;;;;;;7.03;3.95;;;17.90;99.90;;;;;;5036415;28;20629;-85
2023/07/29 00:30:41;;;;;;;7.95;4.30;;;17.90;99.90;;;;;;5036172;28;20174;-86
2023/07/29 00:33:07;;;;;;;7.35;4.03;;;17.90;99.90;;;;;;5036166;28;20173;-86
2023/07/29 00:35:34;;;;;;;6.18;4.07;;;18.00;99.90;;;;;;5035632;28;20273;-86
2023/07/29 00:37:59;;;;;;;3.58;3.28;;;18.00;99.90;;;;;;5035781;28;20186;-86
2023/07/29 00:40:28;;;;;;;8.55;3.95;;;18.10;99.90;;;;;;5035944;28;20328;-85
2023/07/29 00:42:56;;;;;;;6.55;3.70;;;18.00;99.90;;;;;;5035722;28;20185;-85
2023/07/29 00:45:25;;;;;;;6.30;3.67;;;18.00;99.90;;;;;;5035878;28;20343;-86
2023/07/29 00:47:51;;;;;;;8.18;4.15;;;18.00;99.90;;;;;;5036099;28;20173;-85
2023/07/29 00:50:17;;;;;;;3.63;3.33;;;18.00;99.90;;;;;;5035927;28;20553;-85
2023/07/29 00:52:43;;;;;;;4.72;3.60;;;18.10;99.90;;;;;;5035746;28;20178;-85
2023/07/29 00:55:09;;;;;;;5.40;3.90;;;18.10;99.90;;;;;;5035790;28;20185;-85
2023/07/29 00:57:35;;;;;;;6.40;3.80;;;18.10;99.90;;;;;;5035363;28;20758;-86
2023/07/29 01:00:03;;;;;;;4.43;3.70;;;18.10;99.90;;;;;;5470441;23;20698;-94
2023/07/29 01:02:29;;;;;;;10.93;4.22;;;18.10;99.90;;;;;;5036654;28;20604;-94
2023/07/29 01:04:57;;;;;;;5.28;3.53;;;18.10;99.90;;;;;;5036611;28;20613;-93
2023/07/29 01:07:36;;;;;;;5.85;3.60;;;18.10;99.90;;;;;;5035855;28;20181;-93
2023/07/29 01:10:07;;;;;;;4.82;3.60;;;18.10;99.90;;;;;;5037500;28;20166;-93
2023/07/29 01:13:00;;;;;;;5.15;3.58;;;18.00;99.90;;;;;;5037684;28;20170;-93
2023/07/29 01:15:39;;;;;;;5.97;3.50;;;18.10;99.90;;;;;;5029105;28;20240;-93
2023/07/29 01:18:08;;;;;;;3.80;3.30;;;18.00;99.90;;;;;;5038437;28;20187;-93
2023/07/29 01:20:38;;;;;;;5.65;3.03;;;18.00;99.90;;;;;;5041305;28;20200;-94
2023/07/29 01:23:04;;;;;;;5.88;3.58;;;18.00;99.90;;;;;;5041156;28;20256;-93
2023/07/29 01:25:30;;;;;;;9.60;4.07;;;18.00;99.90;;;;;;5041112;28;20253;-94
2023/07/29 01:27:56;;;;;;;3.60;3.30;;;18.00;99.90;;;;;;5041129;28;20434;-95
2023/07/29 01:30:28;;;;;;;6.20;3.72;;;17.90;99.90;;;;;;5040824;28;20178;-92
2023/07/29 01:33:22;;;;;;;5.82;3.42;;;18.00;99.90;;;;;;5041181;28;20173;-91
2023/07/29 01:35:57;;;;;;;5.70;3.40;;;18.00;99.90;;;;;;5041016;28;20182;-93
2023/07/29 01:38:33;;;;;;;3.33;2.90;;;18.10;99.90;;;;;;5041178;28;20173;-92
2023/07/29 01:41:01;;;;;;;8.70;3.35;;;18.00;99.90;;;;;;5041116;28;20161;-93
2023/07/29 01:43:28;;;;;;;6.43;3.42;;;18.00;99.90;;;;;;5058628;28;20169;-91
2023/07/29 01:45:54;;;;;;;4.07;3.10;;;18.00;99.90;;;;;;5041035;28;20178;-92
2023/07/29 01:48:20;;;;;;;6.25;3.00;;;18.00;99.90;;;;;;5040881;28;20181;-92
2023/07/29 01:50:45;;;;;;;3.33;2.50;;;18.00;99.90;;;;;;5040960;28;20195;-91
2023/07/29 01:53:25;;;;;;;4.10;2.85;;;18.00;99.90;;;;;;5058063;28;20186;-92
2023/07/29 01:55:51;;;;;;;5.10;2.92;;;18.00;99.90;;;;;;5040791;28;20165;-93
2023/07/29 01:58:17;;;;;;;4.95;2.60;;;17.90;99.90;;;;;;5040523;28;20178;-92
2023/07/29 02:00:42;;;;;;;3.33;2.60;;;18.00;99.90;;;;;;5040518;28;20252;-91
2023/07/29 02:03:08;;;;;;;4.57;2.30;;;17.90;99.90;;;;;;5040448;28;20212;-93
2023/07/29 02:05:34;;;;;;;4.93;2.45;;;17.90;99.90;;;;;;5039904;28;20601;-93
2023/07/29 02:07:59;;;;;;;7.78;2.78;;;17.90;99.90;;;;;;5021444;28;20237;-94
2023/07/29 02:10:25;;;;;;;4.43;2.55;;;17.90;99.90;;;;;;5020684;28;20174;-95
2023/07/29 02:12:52;;;;;;;4.50;2.30;;;17.90;99.90;;;;;;5020936;28;20177;-93
2023/07/29 02:15:18;;;;;;;4.40;2.53;;;17.90;99.90;;;;;;5020750;28;20182;-93
2023/07/29 02:17:44;;;;;;;5.38;2.33;;;17.90;99.90;;;;;;5020470;28;20225;-93
2023/07/29 02:20:10;;;;;;;4.05;2.55;;;17.90;99.90;;;;;;5020317;28;20536;-93
2023/07/29 02:22:43;;;;;;;4.20;2.38;;;17.90;99.90;;;;;;5020174;28;20194;-95
2023/07/29 02:25:09;;;;;;;4.25;2.08;;;17.90;99.90;;;;;;5020357;28;20185;-96
2023/07/29 02:27:35;;;;;;;4.13;2.00;;;17.90;99.90;;;;;;5020333;28;20178;-93
2023/07/29 02:30:02;;;;;;;3.45;1.85;;;17.90;99.90;;;;;;5020066;28;20636;-93
2023/07/29 02:32:29;;;;;;;3.22;2.08;;;17.90;99.90;;;;;;5020224;28;20187;-92
2023/07/29 02:34:54;;;;;;;3.95;2.00;;;17.80;99.90;;;;;;5020362;28;20174;-94
2023/07/29 02:37:20;;;;;;;6.13;2.30;;;17.80;99.90;;;;;;5029295;28;20575;-93
2023/07/29 02:39:46;;;;;;;2.25;1.65;;;17.80;99.90;;;;;;5036738;28;20182;-91
2023/07/29 02:42:12;;;;;;;8.00;1.98;;;17.80;99.90;;;;;;5036638;28;20236;-93
2023/07/29 02:44:40;;;;;;;3.75;2.00;;;17.80;99.90;;;;;;5036555;28;20163;-93
2023/07/29 02:47:05;;;;;;;5.85;2.10;;;17.70;99.90;;;;;;5036372;28;20179;-91
2023/07/29 02:49:31;;;;;;;2.97;1.92;;;17.70;99.90;;;;;;5036574;28;20174;-92
2023/07/29 02:52:05;;;;;;;3.90;1.90;;;17.70;99.90;;;;;;5036007;28;20190;-93
2023/07/29 02:54:31;;;;;;;2.70;1.80;;;17.60;99.90;;;;;;5019585;28;20163;-93
2023/07/29 02:56:56;;;;;;;4.97;2.33;;;17.60;99.90;;;;;;5036422;28;20667;-92
2023/07/29 02:59:22;;;;;;;4.38;1.85;;;17.60;99.90;;;;;;5036225;28;20202;-93
2023/07/29 03:01:48;;;;;;;2.28;1.70;;;17.60;99.90;;;;;;5034950;28;20230;-93
2023/07/29 03:04:23;;;;;;;2.30;1.55;;;17.50;99.90;;;;;;5035267;28;20209;-94
2023/07/29 03:06:49;;;;;;;2.70;1.60;;;17.50;99.90;;;;;;5029443;28;20213;-94
2023/07/29 03:09:14;;;;;;;4.60;1.70;;;17.50;99.90;;;;;;5034830;28;20213;-94
2023/07/29 03:11:40;;;;;;;3.67;1.80;;;17.50;99.90;;;;;;5037474;28;20265;-92
2023/07/29 03:14:07;;;;;;;3.38;1.63;;;17.50;99.90;;;;;;5037855;28;20251;-93
2023/07/29 03:16:32;;;;;;;3.10;1.70;;;17.50;99.90;;;;;;5037762;28;20209;-93
2023/07/29 03:19:00;;;;;;;2.90;1.85;;;17.40;99.90;;;;;;5055548;28;20192;-92
2023/07/29 03:21:25;;;;;;;3.05;1.70;;;17.40;99.90;;;;;;5037423;28;20204;-94
2023/07/29 03:23:51;;;;;;;5.30;2.03;;;17.40;99.90;;;;;;5037659;28;20174;-93
2023/07/29 03:26:17;;;;;;;5.60;1.60;;;17.40;99.90;;;;;;5037976;28;20181;-94
2023/07/29 03:28:43;;;;;;;2.95;1.67;;;17.40;99.90;;;;;;5038488;28;20588;-92
2023/07/29 03:31:10;;;;;;;2.22;1.55;;;17.40;99.90;;;;;;5037858;28;20174;-92
2023/07/29 03:34:03;;;;;;;3.67;1.60;;;17.40;99.90;;;;;;5037822;28;20178;-92
2023/07/29 03:36:29;;;;;;;3.03;1.70;;;17.40;99.90;;;;;;5037668;28;20206;-91
2023/07/29 03:38:55;;;;;;;2.03;1.80;;;17.40;99.90;;;;;;5055286;28;20197;-92
2023/07/29 03:41:20;;;;;;;3.97;1.77;;;17.40;99.90;;;;;;5037027;28;20192;-91
2023/07/29 03:43:53;;;;;;;4.18;1.58;;;17.50;99.90;;;;;;5055346;28;20243;-92
2023/07/29 03:46:21;;;;;;;2.78;1.70;;;17.50;99.90;;;;;;5037720;28;20202;-91
2023/07/29 03:48:47;;;;;;;2.22;1.50;;;17.50;99.90;;;;;;5037753;28;20223;-92
2023/07/29 03:51:13;;;;;;;3.88;1.80;;;17.50;99.90;;;;;;5037369;28;20189;-93
2023/07/29 03:53:48;;;;;;;3.42;1.70;;;17.60;99.90;;;;;;5037288;28;20177;-92
2023/07/29 03:56:13;;;;;;;7.47;1.60;;;17.70;99.90;;;;;;5037476;28;20300;-92
2023/07/29 03:58:39;;;;;;;1.98;1.48;;;17.70;99.90;;;;;;5037498;28;20236;-92
2023/07/29 04:01:05;;;;;;;3.00;1.80;;;17.70;99.90;;;;;;4997399;28;1154786;-90
2023/07/29 04:03:34;;;;;;;5.93;1.45;;;17.80;99.90;;;;;;5055988;28;20213;-93
2023/07/29 04:06:00;;;;;;;2.90;1.60;;;17.90;99.90;;;;;;5038306;28;20220;-91
2023/07/29 04:08:26;;;;;;;4.45;1.75;;;17.90;99.90;;;;;;5038192;28;20552;-93
2023/07/29 04:10:52;;;;;;;2.15;1.60;;;17.90;99.90;;;;;;5037947;28;20178;-92
2023/07/29 04:13:23;;;;;;;2.50;1.77;;;17.90;99.90;;;;;;5038202;28;20631;-90
2023/07/29 04:15:49;;;;;;;1.85;1.60;;;17.90;99.90;;;;;;5037836;28;20276;-92
2023/07/29 04:18:14;;;;;;;4.30;1.65;;;18.00;99.90;;;;;;5037530;28;20269;-92
2023/07/29 04:20:40;;;;;;;5.00;1.60;;;18.00;99.90;;;;;;5037939;28;20173;-93
2023/07/29 04:23:12;;;;;;;1.73;1.45;;;18.00;99.90;;;;;;5037633;28;20185;-93
2023/07/29 04:25:37;;;;;;;2.03;1.77;;;18.10;99.90;;;;;;5037880;28;20178;-94
2023/07/29 04:28:04;;;;;;;1.70;1.60;;;18.10;99.90;;;;;;5037856;28;20178;-92
2023/07/29 04:30:30;;;;;;;4.28;1.77;;;18.10;99.90;;;;;;5037684;28;20277;-93
2023/07/29 04:32:58;;;;;;;1.98;1.70;;;18.10;99.90;;;;;;5037848;28;20209;-93
2023/07/29 04:35:23;;;;;;;1.50;1.38;;;18.10;99.90;;;;;;5038107;28;20182;-93
2023/07/29 04:37:49;;;;;;;2.95;1.50;;;18.20;99.90;;;;;;5037065;28;20214;-91
2023/07/29 04:40:15;;;;;;;2.50;1.60;;;18.10;99.90;;;;;;5058341;28;20230;-92
2023/07/29 04:42:40;;;;;;;1.88;1.55;;;18.10;99.90;;;;;;5057677;28;20177;-92
2023/07/29 04:45:10;;;;;;;5.05;1.75;;;18.20;99.90;;;;;;5057565;28;20177;-91
2023/07/29 04:47:36;;;;;;;3.25;1.70;;;18.20;99.90;;;;;;5057557;28;20180;-93
2023/07/29 04:50:02;;;;;;;2.83;1.60;;;18.20;99.90;;;;;;5057369;28;20173;-92
2023/07/29 04:52:27;;;;;;;2.85;1.85;;;18.20;99.90;;;;;;5057163;28;20204;-91
2023/07/29 04:55:43;;;;;;;2.45;1.65;;;18.20;99.90;;;;;;5057466;28;20626;-93
2023/07/29 04:58:09;;;;;;;3.05;1.50;;;18.30;99.90;;;;;;5074185;28;20181;-93
2023/07/29 05:00:34;;;;;;;2.30;1.60;;;18.30;99.90;;;;;;5057256;28;20228;-92
2023/07/29 05:03:01;;;;;;;2.80;1.40;;;18.40;99.90;;;;;;5057243;28;20546;-93
2023/07/29 05:05:27;;;;;;;1.50;1.30;;;18.30;99.90;;;;;;5057642;28;20185;-92
2023/07/29 05:07:52;;;;;;;3.67;1.50;;;18.40;99.90;;;;;;5057158;28;20185;-91
2023/07/29 05:10:19;;;;;;;1.95;1.50;;;18.50;99.90;;;;;;5071818;28;20216;-93
2023/07/29 05:12:44;;;;;;;2.30;1.52;;;18.50;99.90;;;;;;5037436;28;20178;-94
2023/07/29 05:15:12;;;;;;;3.63;1.23;;;18.60;99.90;;;;;;5037361;28;20224;-92
2023/07/29 05:17:38;;;;;;;2.75;1.50;;;18.60;99.90;;;;;;5037081;28;20300;-93
2023/07/29 05:20:04;;;;;;;2.35;1.40;;;18.60;99.90;;;;;;5037140;28;20288;-93
2023/07/29 05:22:30;;;;;;;2.17;1.33;;;18.60;99.90;;;;;;5036888;28;20182;-93
2023/07/29 05:24:58;;;;;;;4.03;1.60;;;18.70;99.90;;;;;;5054921;28;20496;-93
2023/07/29 05:27:24;;;;;;;1.85;1.50;;;18.80;99.90;;;;;;5037497;28;20177;-93
2023/07/29 05:29:50;;;;;;;2.40;1.67;;;18.90;99.90;;;;;;5036973;28;20176;-93
2023/07/29 05:32:15;;;;;;;1.60;1.50;;;19.00;99.90;;;;;;5036824;28;20182;-93
2023/07/29 05:34:44;;;;;;;2.97;1.70;;;19.00;99.90;;;;;;5036663;28;20181;-93
2023/07/29 05:37:10;;;;;;;3.42;1.65;;;19.10;99.90;;;;;;5036826;28;20275;-93
2023/07/29 05:39:35;;;;;;;4.97;1.63;;;19.10;99.90;;;;;;5037225;28;20170;-94
2023/07/29 05:42:04;;;;;;;4.50;1.50;;;19.20;99.90;;;;;;5037432;28;20235;-93
2023/07/29 05:44:31;;;;;;;2.60;1.67;;;19.20;99.90;;;;;;5036439;28;20173;-94
2023/07/29 05:46:57;;;;;;;3.15;2.00;;;19.20;99.90;;;;;;5036574;28;20186;-94
2023/07/29 05:49:23;;;;;;;4.45;1.50;;;19.20;99.90;;;;;;5036612;28;20178;-94
2023/07/29 05:51:50;;;;;;;1.75;1.55;;;19.20;99.90;;;;;;5036802;28;20181;-93
2023/07/29 05:54:29;;;;;;;1.80;1.70;;;19.20;99.90;;;;;;5037069;28;20277;-95
2023/07/29 05:56:54;;;;;;;2.00;1.77;;;19.20;99.90;;;;;;5036853;28;20652;-95
2023/07/29 05:59:20;;;;;;;2.13;1.60;;;19.30;99.90;;;;;;5036879;28;20193;-95
2023/07/29 06:01:45;;;;;;;2.00;1.65;;;19.30;99.90;;;;;;5014651;28;20231;-95
2023/07/29 06:04:15;;;;;;;3.30;1.67;;;19.40;99.90;;;;;;5014929;28;20175;-94
2023/07/29 06:06:41;;;;;;;4.78;2.00;;;19.30;99.90;;;;;;5017239;28;20182;-94
2023/07/29 06:09:07;;;;;;;3.15;1.90;;;19.30;99.90;;;;;;5017398;28;20539;-94
2023/07/29 06:11:32;;;;;;;6.25;1.70;;;19.20;99.90;;;;;;5030792;28;20495;-92
2023/07/29 06:13:58;;;;;;;2.97;1.70;;;19.20;99.90;;;;;;5037195;28;20182;-94
2023/07/29 06:16:24;;;;;;;2.88;1.77;;;19.10;99.90;;;;;;5037134;28;20221;-92
2023/07/29 06:18:49;;;;;;;2.88;1.67;;;19.10;99.90;;;;;;5037105;28;20521;-92
2023/07/29 06:21:16;;;;;;;3.67;1.90;;;19.10;99.90;;;;;;5036936;28;20232;-92
2023/07/29 06:23:43;;;;;;;4.07;1.55;;;19.10;99.90;;;;;;5037790;28;20174;-93
2023/07/29 06:26:09;;;;;;;5.35;1.83;;;19.10;99.90;;;;;;5037008;28;20174;-92
2023/07/29 06:28:34;;;;;;;3.60;1.80;;;19.10;99.90;;;;;;5037086;28;20171;-92
2023/07/29 06:31:08;;;;;;;5.07;1.85;;;19.10;99.90;;;;;;5025702;28;20635;-91
2023/07/29 06:33:34;;;;;;;1.65;1.42;;;19.00;99.90;;;;;;5023784;28;20187;-90
2023/07/29 06:36:05;;;;;;;2.75;1.80;;;19.00;99.90;;;;;;5015790;28;20237;-90
2023/07/29 06:38:31;;;;;;;5.50;2.03;;;19.00;99.90;;;;;;5025177;28;20282;-90
2023/07/29 06:40:56;;;;;;;5.85;1.52;;;18.90;99.90;;;;;;5028114;28;20215;-90
2023/07/29 06:43:22;;;;;;;4.90;1.70;;;18.90;99.90;;;;;;5032039;28;20554;-89
2023/07/29 06:45:49;;;;;;;3.80;1.50;;;18.80;99.90;;;;;;5022978;28;20233;-88
2023/07/29 06:48:15;;;;;;;11.10;1.90;;;18.90;99.90;;;;;;5031205;28;20217;-89
2023/07/29 06:50:40;;;;;;;4.22;2.08;;;18.80;99.90;;;;;;5022107;28;20206;-89
2023/07/29 06:53:06;;;;;;;8.82;2.10;;;18.80;99.90;;;;;;5020925;28;20190;-88
2023/07/29 06:55:37;;;;;;;5.60;2.00;;;18.80;99.90;;;;;;5019202;28;20627;-90
2023/07/29 06:58:04;;;;;;;3.28;1.83;;;18.80;99.90;;;;;;5007279;28;20202;-90
2023/07/29 07:00:29;;;;;;;6.47;2.20;;;18.80;99.90;;;;;;5010553;28;20261;-88
2023/07/29 07:02:55;;;;;;;3.90;2.30;;;18.70;99.90;;;;;;5001354;28;20200;-90
2023/07/29 07:05:28;;;;;;;7.05;3.13;;;18.60;99.90;;;;;;4996634;28;20747;-90
2023/07/29 07:07:54;;;;;;;4.60;3.10;;;18.40;99.90;;;;;;4996505;28;20172;-91
2023/07/29 07:10:19;;;;;;;7.80;3.42;;;18.30;99.90;;;;;;5000087;28;20187;-90
2023/07/29 07:12:45;;;;;;;6.10;3.05;;;18.20;99.90;;;;;;5016369;28;20629;-91
2023/07/29 07:15:13;;;;;;;7.13;2.97;;;18.10;99.90;;;;;;5015571;28;20186;-92
2023/07/29 07:17:38;;;;;;;7.32;3.10;;;18.00;99.90;;;;;;5016069;28;20216;-90
2023/07/29 07:20:05;;;;;;;5.80;3.00;;;18.00;99.90;;;;;;5015879;28;20171;-91
2023/07/29 07:22:31;;;;;;;3.55;2.60;;;18.00;99.90;;;;;;5015655;28;20187;-90
2023/07/29 07:24:56;;;;;;;4.38;2.88;;;17.90;99.90;;;;;;5003047;28;20184;-90
2023/07/29 07:27:22;;;;;;;6.38;2.88;;;17.90;99.90;;;;;;4996468;28;20182;-91
2023/07/29 07:29:47;;;;;;;8.30;3.00;;;17.90;99.90;;;;;;5006771;28;20318;-91
2023/07/29 07:32:13;;;;;;;5.20;2.80;;;17.90;99.90;;;;;;5015525;28;20187;-92
2023/07/29 07:34:39;;;;;;;4.05;3.00;;;17.90;99.90;;;;;;5015666;28;20270;-90
2023/07/29 07:37:11;;;;;;;4.10;2.75;;;17.90;99.90;;;;;;5010044;28;20242;-90
2023/07/29 07:39:36;;;;;;;4.10;2.75;;;17.90;99.90;;;;;;5016883;28;20195;-91
2023/07/29 07:42:02;;;;;;;5.80;3.00;;;17.90;99.90;;;;;;5015732;28;20187;-91
2023/07/29 07:44:28;;;;;;;3.55;2.40;;;17.90;99.90;;;;;;5015644;28;20179;-93
2023/07/29 07:46:54;;;;;;;4.07;2.85;;;17.90;99.90;;;;;;5015661;28;20502;-91
2023/07/29 07:49:20;;;;;;;5.35;2.80;;;18.00;99.90;;;;;;5015063;28;20262;-91
2023/07/29 07:51:46;;;;;;;3.28;2.88;;;18.00;99.90;;;;;;5015431;28;20237;-92
2023/07/29 07:54:11;;;;;;;3.78;2.70;;;18.10;99.90;;;;;;5015105;28;20801;-92
2023/07/29 07:56:38;;;;;;;3.85;2.95;;;18.00;99.90;;;;;;5015252;28;20199;-92
2023/07/29 07:59:04;;;;;;;7.80;3.25;;;18.00;99.90;;;;;;5015271;28;20202;-93
2023/07/29 08:01:37;;;;;;;3.20;2.70;;;18.10;99.90;;;;;;5047025;28;20692;-92
2023/07/29 08:04:03;;;;;;;4.70;2.70;;;18.10;99.90;;;;;;5025218;28;20233;-92
2023/07/29 08:06:30;;;;;;;2.92;2.50;;;18.20;99.90;;;;;;5014902;28;20180;-91
2023/07/29 08:08:56;;;;;;;5.03;2.63;;;18.30;99.90;;;;;;5014726;28;20618;-93
2023/07/29 08:11:21;;;;;;;3.25;2.38;;;18.30;99.90;;;;;;5027012;28;20213;-93
2023/07/29 08:13:47;;;;;;;5.88;2.60;;;18.40;99.90;;;;;;5034903;28;20182;-92
2023/07/29 08:16:18;;;;;;;2.58;2.15;;;18.50;99.90;;;;;;5035810;28;20222;-93
2023/07/29 08:18:44;;;;;;;2.95;2.13;;;18.50;99.90;;;;;;5034750;28;20181;-92
2023/07/29 08:21:10;;;;;;;2.20;1.92;;;18.60;99.90;;;;;;5034460;28;20175;-92
2023/07/29 08:23:36;;;;;;;4.30;2.40;;;18.70;99.90;;;;;;5034342;28;20581;-93
2023/07/29 08:26:05;;;;;;;3.22;2.60;;;18.70;99.90;;;;;;5034616;28;20185;-94
2023/07/29 08:28:36;;;;;;;3.75;2.45;;;18.90;99.90;;;;;;5034400;28;20261;-93
2023/07/29 08:31:02;;;;;;;3.03;2.13;;;18.90;99.90;;;;;;5034484;28;20170;-93
2023/07/29 08:33:28;;;;;;;3.63;2.33;;;19.00;99.90;;;;;;5035640;28;20182;-93
2023/07/29 08:35:56;;;;;;;2.90;2.00;;;19.10;99.90;;;;;;5034464;28;20244;-92
2023/07/29 08:38:22;;;;;;;2.47;1.45;;;19.20;99.90;;;;;;5035658;28;20174;-91
2023/07/29 08:41:13;;;;;;;2.63;1.98;;;19.30;99.90;;;;;;5034636;28;20182;-92
2023/07/29 08:44:01;;;;;;;2.25;1.52;;;19.40;99.90;;;;;;5034525;28;20178;-93
2023/07/29 08:46:29;;;;;;;1.75;1.20;;;19.40;99.90;;;;;;5034415;28;20178;-92
2023/07/29 08:48:55;;;;;;;1.17;1.08;;;19.50;99.90;;;;;;5034376;28;20204;-93
2023/07/29 08:51:23;;;;;;;1.30;1.10;;;19.60;99.90;;;;;;5034291;28;20261;-93
2023/07/29 08:53:49;;;;;;;1.50;1.10;;;19.70;99.90;;;;;;5033421;28;20182;-94
2023/07/29 08:56:15;;;;;;;1.40;1.30;;;19.80;99.90;;;;;;5033323;28;20297;-91
2023/07/29 08:58:41;;;;;;;1.50;1.20;;;19.90;99.90;;;;;;5033886;28;20233;-93
2023/07/29 09:01:07;;;;;;;1.95;1.17;;;20.10;99.90;;;;;;5020730;28;20624;-93
2023/07/29 09:03:33;;;;;;;1.92;1.13;;;20.10;99.90;;;;;;5014554;28;20179;-91
2023/07/29 09:05:59;;;;;;;3.80;1.40;;;20.20;99.90;;;;;;5014285;28;20203;-96
2023/07/29 09:08:26;;;;;;;1.33;1.10;;;20.30;99.90;;;;;;5014350;28;20183;-95
2023/07/29 09:10:53;;;;;;;4.30;1.10;;;20.30;99.90;;;;;;5014272;28;20215;-93
2023/07/29 09:13:19;;;;;;;2.08;1.13;;;20.40;99.90;;;;;;5014353;28;20186;-94
2023/07/29 09:15:45;;;;;;;2.45;1.20;;;20.50;99.90;;;;;;5014458;28;20179;-94
2023/07/29 09:18:16;;;;;;;1.70;1.10;;;20.40;99.90;;;;;;5014305;28;20277;-94
2023/07/29 09:20:42;;;;;;;3.53;1.25;;;20.40;99.90;;;;;;5015709;28;20213;-96
2023/07/29 09:23:12;;;;;;;2.35;1.40;;;20.40;99.90;;;;;;5014142;28;20182;-96
2023/07/29 09:25:39;;;;;;;4.72;1.15;;;20.50;99.90;;;;;;5014403;28;20180;-95
2023/07/29 09:28:16;;;;;;;2.33;1.23;;;20.50;99.90;;;;;;5014185;28;20175;-95
2023/07/29 09:30:44;;;;;;;2.08;1.30;;;20.60;99.90;;;;;;5014340;28;20514;-94
2023/07/29 09:33:10;;;;;;;2.17;1.30;;;20.80;99.90;;;;;;5014375;28;20183;-93
2023/07/29 09:35:37;;;;;;;1.63;0.98;;;20.80;99.90;;;;;;5015255;28;20183;-94
2023/07/29 09:38:05;;;;;;;1.80;0.98;;;20.80;99.90;;;;;;5013548;28;20217;-93
2023/07/29 09:40:38;;;;;;;2.25;1.30;;;20.70;99.90;;;;;;5017772;28;20183;-92
2023/07/29 09:43:05;;;;;;;2.65;1.30;;;20.70;99.90;;;;;;5018225;28;20205;-91
2023/07/29 09:45:34;;;;;;;2.05;1.08;;;20.70;99.90;;;;;;5018071;28;20175;-93
2023/07/29 09:48:22;;;;;;;1.73;0.90;;;20.60;99.90;;;;;;5017951;28;20187;-94
2023/07/29 09:50:47;;;;;;;2.30;1.10;;;20.70;99.90;;;;;;5017763;28;20525;-92
2023/07/29 09:53:14;;;;;;;4.57;1.20;;;20.70;99.90;;;;;;5017567;28;20179;-94
2023/07/29 09:55:45;;;;;;;2.63;0.90;;;20.60;99.90;;;;;;5017741;28;20176;-93
2023/07/29 09:58:25;;;;;;;1.60;1.08;;;20.60;99.90;;;;;;5018077;28;20222;-95
2023/07/29 10:00:51;;;;;;;2.95;1.00;;;20.70;99.90;;;;;;5017531;28;20226;-94
2023/07/29 10:03:20;;;;;;;2.97;1.33;;;20.70;99.90;;;;;;5017839;28;20187;-91
2023/07/29 10:05:46;;;;;;;3.22;1.00;;;20.90;99.90;;;;;;5017570;28;20175;-95
2023/07/29 10:08:40;;;;;;;2.33;1.10;;;20.90;99.90;;;;;;5017578;28;20605;-94
2023/07/29 10:11:07;;;;;;;1.10;0.80;;;20.90;99.90;;;;;;5017345;28;20213;-93
2023/07/29 10:13:33;;;;;;;1.45;1.00;;;20.90;99.90;;;;;;5017241;28;20179;-94
2023/07/29 10:16:02;;;;;;;3.45;1.27;;;20.70;99.90;;;;;;5017366;28;20190;-94
2023/07/29 10:18:37;;;;;;;2.60;1.30;;;20.60;99.90;;;;;;5017396;28;20187;-92
2023/07/29 10:21:05;;;;;;;7.70;1.75;;;20.40;99.90;;;;;;5016599;28;20167;-89
2023/07/29 10:23:36;;;;;;;3.50;1.48;;;20.30;99.90;;;;;;5016139;28;20186;-91
2023/07/29 10:26:08;;;;;;;4.65;1.60;;;20.20;99.90;;;;;;5016932;28;20173;-90
2023/07/29 10:29:04;;;;;;;2.58;1.40;;;20.10;99.90;;;;;;5017176;28;20197;-92
2023/07/29 10:31:31;;;;;;;3.15;1.48;;;20.10;99.90;;;;;;5017190;28;20182;-91
2023/07/29 10:33:57;;;;;;;4.00;1.60;;;20.00;99.90;;;;;;5016745;28;20183;-93
2023/07/29 10:36:23;;;;;;;3.70;1.80;;;19.90;99.90;;;;;;5016587;28;20207;-93
2023/07/29 10:38:55;;;;;;;2.28;1.50;;;19.90;99.90;;;;;;5015915;28;20242;-92
2023/07/29 10:41:21;;;;;;;3.10;1.60;;;20.00;99.90;;;;;;5016654;28;20192;-93
2023/07/29 10:43:46;;;;;;;2.17;1.42;;;20.10;99.90;;;;;;5016931;28;20183;-92
2023/07/29 10:46:20;;;;;;;2.38;1.33;;;20.40;99.90;;;;;;5016910;28;20510;-94
2023/07/29 10:48:56;;;;;;;1.40;1.30;;;20.70;99.90;;;;;;5017173;28;20168;-92
2023/07/29 10:51:36;;;;;;;1.88;1.45;;;21.00;99.90;;;;;;5016539;28;20171;-92
2023/07/29 10:54:03;;;;;;;2.05;1.45;;;21.20;99.90;;;;;;5016397;28;20179;-93
2023/07/29 10:56:34;;;;;;;1.48;1.38;;;21.30;99.90;;;;;;5016765;28;20203;-93
2023/07/29 10:59:21;;;;;;;2.00;1.50;;;21.40;99.90;;;;;;5016752;28;20203;-96
2023/07/29 11:02:17;;;;;;;2.20;2.00;;;21.50;99.90;;;;;;5027850;28;20670;-91
2023/07/29 11:04:49;;;;;;;1.70;1.60;;;21.60;99.90;;;;;;5035391;28;20278;-94
2023/07/29 11:07:15;;;;;;;2.53;2.10;;;21.60;99.90;;;;;;5036182;28;20186;-93
2023/07/29 11:09:51;;;;;;;2.33;2.13;;;21.60;99.90;;;;;;5036296;28;20179;-94
2023/07/29 11:12:50;;;;;;;1.92;1.75;;;21.70;99.90;;;;;;5036111;28;20189;-96
2023/07/29 11:15:21;;;;;;;4.03;2.33;;;21.90;99.90;;;;;;5036169;28;20175;-95
2023/07/29 11:17:54;;;;;;;4.00;2.60;;;22.10;99.90;;;;;;5036174;28;20206;-93
2023/07/29 11:20:22;;;;;;;2.35;2.17;;;22.40;99.90;;;;;;5036065;28;20255;-90
2023/07/29 11:22:48;;;;;;;3.30;1.95;;;22.50;99.90;;;;;;5035688;28;20189;-94
2023/07/29 11:25:16;;;;;;;3.30;1.80;;;22.40;99.90;;;;;;5035988;28;20181;-92
2023/07/29 11:27:46;;;;;;;1.98;1.88;;;22.50;99.90;;;;;;5036155;28;20202;-95
2023/07/29 11:30:13;;;;;;;3.50;2.08;;;22.60;99.90;;;;;;5036277;28;20177;-96
2023/07/29 11:32:40;;;;;;;3.42;1.88;;;22.90;99.90;;;;;;5035657;28;20237;-94
2023/07/29 11:35:12;;;;;;;2.45;2.00;;;23.00;99.90;;;;;;5035491;28;20175;-93
2023/07/29 11:37:39;;;;;;;4.38;2.40;;;23.20;99.90;;;;;;5035458;28;20676;-94
2023/07/29 11:40:06;;;;;;;3.92;2.15;;;23.40;99.90;;;;;;5035536;28;20171;-93
2023/07/29 11:42:35;;;;;;;2.65;2.30;;;23.30;99.90;;;;;;5035570;28;20170;-94
2023/07/29 11:45:03;;;;;;;3.38;2.60;;;23.30;99.90;;;;;;5036382;28;20171;-93
2023/07/29 11:47:29;;;;;;;3.30;3.00;;;23.30;99.90;;;;;;5036552;28;20175;-92
2023/07/29 11:50:10;;;;;;;3.40;3.00;;;23.20;99.90;;;;;;5035525;28;20185;-95
2023/07/29 11:52:37;;;;;;;6.63;3.40;;;22.80;99.90;;;;;;5035309;28;20186;-96
2023/07/29 11:55:04;;;;;;;6.20;4.00;;;22.50;99.90;;;;;;5034679;28;20175;-91
2023/07/29 11:57:33;;;;;;;7.78;5.35;;;22.30;99.90;;;;;;5035260;28;20234;-91
2023/07/29 11:59:59;;;;;;;7.18;5.68;;;22.00;99.90;;;;;;5031332;28;20273;-90
2023/07/29 12:02:26;;;;;;;7.50;6.00;;;21.70;99.90;;;;;;5014647;28;20183;-91
2023/07/29 12:04:52;;;;;;;8.55;6.32;;;21.60;99.90;;;;;;5014708;28;20179;-90
2023/07/29 12:07:18;;;;;;;7.55;6.25;;;21.80;99.90;;;;;;5014521;28;20179;-89
2023/07/29 12:09:46;;;;;;;9.20;6.90;;;22.10;99.90;;;;;;5014719;28;20615;-91
2023/07/29 12:12:12;;;;;;;12.85;7.20;;;22.40;99.90;;;;;;5015084;28;20210;-92
2023/07/29 12:14:38;;;;;;;8.00;6.97;;;22.60;99.90;;;;;;5016238;28;20610;-91
2023/07/29 12:17:06;;;;;;;7.60;6.90;;;22.60;99.90;;;;;;5014804;28;20268;-94
2023/07/29 12:19:41;;;;;;;7.47;6.78;;;22.60;99.90;;;;;;5016194;28;20656;-94
2023/07/29 12:22:09;;;;;;;9.35;7.05;;;22.90;99.90;;;;;;5015171;28;20273;-94
2023/07/29 12:24:40;;;;;;;10.32;7.97;;;23.20;99.90;;;;;;5014835;28;20513;-93
2023/07/29 12:27:14;;;;;;;6.93;6.32;;;23.30;99.90;;;;;;5014775;28;20175;-93
2023/07/29 12:29:43;;;;;;;7.22;6.53;;;23.40;99.90;;;;;;5014938;28;20191;-94
2023/07/29 12:32:09;;;;;;;6.20;5.70;;;23.50;99.90;;;;;;5014932;28;20181;-94
2023/07/29 12:34:37;;;;;;;5.10;4.60;;;23.30;99.90;;;;;;5015814;28;20171;-93
2023/07/29 12:37:05;;;;;;;4.75;4.32;;;23.10;99.90;;;;;;5014572;28;20213;-94
2023/07/29 12:39:50;;;;;;;4.63;4.18;;;23.00;99.90;;;;;;5014641;28;20202;-94
2023/07/29 12:42:16;;;;;;;4.50;4.10;;;23.10;99.90;;;;;;5015673;28;20194;-95
2023/07/29 12:44:42;;;;;;;4.10;3.78;;;23.20;99.90;;;;;;5014672;28;20628;-90
2023/07/29 12:47:09;;;;;;;4.47;3.63;;;23.20;99.90;;;;;;5014614;28;20197;-93
2023/07/29 12:49:34;;;;;;;3.85;2.97;;;23.20;99.90;;;;;;5014475;28;20187;-93
2023/07/29 12:52:00;;;;;;;2.88;2.67;;;23.10;99.90;;;;;;5014563;28;20167;-92